Portada
METAR-TAF:

METAR-TAF

Aeroports :

David, Panamà

latitud: 08-24N, longitud: 082-25W, altitud: 29 m

Observació

L'informe es va fer fa 52 minuts, a les 11:00 UTC
Vent calma
Temperatura 24°C
Humitat 100%
Pressió 1010 hPa
Visibilitat 10 km o més
Cel ennuvolat a una alçada de 1500 ft

METAR: MPDA 281100Z 00000KT 9999 BKN015 24/24 Q1010

Hora: 06:52 (11:52 UTC)

Pronòstic

L'informe es va fer fa 52 minuts, a les 11:00 UTC
Pronòstic vàlid del 28 a les 12 UTC al 28 a les 24 UTC
Vent 2 kt amb direcció variable
Visibilitat 10 km o més
Escasses núvols a una alçada de 1800 ft
Núvols disperses a una alçada de 8000 ft
Probabilitat 30% :
Temporalment
l' 28 a les 20 UTC al 28 a les 24 UTC
Vent 2 kt amb direcció variable
Visibilitat: 6000 m
Núvols disperses a una alçada de 1600 ft, Cumulonimbus.
Núvols disperses a una alçada de 7000 ft
tempesta, pluja

TAF: MPDA 281100Z 2812/2824 VRB02KT 9999 FEW018 SCT080 PROB30 TEMPO 2820/2824 VRB02KT 6000 TSRA SCT016CB SCT070

Observacions i pronòstics meteorològics de més de 4000 aeroports (METAR i TAF).

Les estacions disponibles són els punts grocs i vermells al mapa.

Posi el ratolí al punt desitjat per veure el nom de l'estació.

Feu clic per veure les observacions i els pronòstics meteorològics.

Per canviar el mapa: feu clic els botons verds amb una creu de color negre per apropar; al botó verd amb un guió per allunyar la imatge; o en les fletxes verdes per a mapes adjacents.


METAR-TAF: